createdAt,value
2018-05-06T00:01:02.496Z,16.00
2018-05-06T00:03:31.002Z,15.90
2018-05-06T00:06:00.403Z,16.00
2018-05-06T00:08:28.905Z,16.00
2018-05-06T00:10:57.510Z,16.00
2018-05-06T00:13:26.000Z,15.90
2018-05-06T00:15:54.523Z,15.70
2018-05-06T00:18:23.016Z,15.80
2018-05-06T00:20:51.568Z,15.80
2018-05-06T00:23:20.080Z,15.80
2018-05-06T00:25:48.604Z,15.60
2018-05-06T00:28:17.880Z,15.70
2018-05-06T00:30:51.209Z,15.70
2018-05-06T00:33:19.755Z,15.60
2018-05-06T00:35:49.040Z,15.60
2018-05-06T00:38:17.544Z,15.60
2018-05-06T00:40:46.042Z,15.60
2018-05-06T00:43:14.330Z,15.60
2018-05-06T00:45:42.856Z,15.60
2018-05-06T00:48:11.381Z,15.60
2018-05-06T00:50:39.898Z,15.50
2018-05-06T00:53:10.784Z,15.40
2018-05-06T00:55:39.328Z,15.40
2018-05-06T00:58:08.925Z,15.30
2018-05-06T01:00:38.240Z,15.40
2018-05-06T01:03:06.772Z,15.40
2018-05-06T01:05:35.086Z,15.40
2018-05-06T01:08:03.621Z,15.40
2018-05-06T01:10:32.161Z,15.40
2018-05-06T01:13:00.684Z,15.30
2018-05-06T01:15:29.194Z,15.20
2018-05-06T01:17:57.707Z,15.30
2018-05-06T01:20:29.928Z,15.30
2018-05-06T01:22:58.476Z,15.20
2018-05-06T01:25:27.020Z,15.10
2018-05-06T01:27:55.347Z,14.80
2018-05-06T01:30:23.866Z,14.90
2018-05-06T01:32:52.353Z,14.90
2018-05-06T01:35:20.938Z,14.80
2018-05-06T01:37:50.296Z,14.90
2018-05-06T01:40:18.874Z,14.90
2018-05-06T01:42:47.389Z,14.90
2018-05-06T01:45:16.693Z,14.70
2018-05-06T01:47:45.217Z,14.70
2018-05-06T01:50:13.770Z,14.50
2018-05-06T01:52:42.300Z,14.60
2018-05-06T01:55:10.628Z,14.70
2018-05-06T01:57:39.152Z,14.60
2018-05-06T02:00:08.083Z,14.60
2018-05-06T02:02:36.605Z,14.60
2018-05-06T02:05:05.125Z,14.60
2018-05-06T02:07:34.307Z,14.40
2018-05-06T02:10:02.842Z,14.50
2018-05-06T02:12:31.397Z,14.50
2018-05-06T02:14:59.550Z,14.60
2018-05-06T02:17:28.077Z,14.70
2018-05-06T02:19:56.585Z,14.70
2018-05-06T02:22:25.137Z,14.60
2018-05-06T02:24:54.415Z,14.60
2018-05-06T02:27:22.963Z,14.60
2018-05-06T02:29:52.311Z,14.30
2018-05-06T02:32:21.607Z,14.20
2018-05-06T02:34:50.131Z,14.20
2018-05-06T02:37:20.273Z,14.20
2018-05-06T02:39:48.815Z,14.20
2018-05-06T02:42:21.048Z,14.40
2018-05-06T02:44:49.576Z,14.40
2018-05-06T02:47:18.080Z,14.30
2018-05-06T02:49:46.609Z,14.20
2018-05-06T02:52:15.116Z,14.10
2018-05-06T02:54:43.639Z,14.20
2018-05-06T02:57:12.178Z,14.00
2018-05-06T02:59:40.512Z,14.10
2018-05-06T03:02:12.578Z,14.00
2018-05-06T03:04:41.096Z,14.00
2018-05-06T03:07:09.571Z,14.00
2018-05-06T03:09:38.868Z,14.00
2018-05-06T03:12:07.437Z,14.00
2018-05-06T03:14:36.715Z,13.60
2018-05-06T03:17:05.281Z,13.60
2018-05-06T03:19:33.771Z,13.80
2018-05-06T03:22:05.251Z,13.70
2018-05-06T03:24:34.612Z,13.70
2018-05-06T03:27:02.759Z,13.70
2018-05-06T03:29:31.284Z,13.80
2018-05-06T03:32:03.615Z,13.80
2018-05-06T03:34:34.715Z,13.80
2018-05-06T03:37:04.033Z,13.70
2018-05-06T03:39:32.531Z,13.80
2018-05-06T03:42:01.036Z,13.80
2018-05-06T03:44:29.557Z,13.80
2018-05-06T03:46:58.080Z,13.70
2018-05-06T03:49:26.619Z,13.70
2018-05-06T03:51:55.172Z,13.60
2018-05-06T03:54:23.695Z,13.60
2018-05-06T03:57:03.407Z,13.50
2018-05-06T03:59:43.009Z,13.50
2018-05-06T04:05:22.293Z,13.50
2018-05-06T04:07:50.744Z,13.40
2018-05-06T04:10:19.933Z,13.40
2018-05-06T04:12:49.141Z,13.40
2018-05-06T04:15:18.369Z,13.50
2018-05-06T04:17:46.855Z,13.50
2018-05-06T04:20:15.523Z,13.30
2018-05-06T04:22:44.105Z,13.40
2018-05-06T04:25:12.627Z,13.40
2018-05-06T04:27:41.430Z,13.30
2018-05-06T04:30:09.981Z,13.20
2018-05-06T04:32:38.509Z,13.30
2018-05-06T04:35:06.995Z,13.30
2018-05-06T04:37:36.195Z,13.30
2018-05-06T04:40:04.354Z,13.30
2018-05-06T04:42:33.556Z,13.20
2018-05-06T04:45:02.781Z,13.30
2018-05-06T04:47:31.212Z,13.30
2018-05-06T04:49:59.712Z,13.20
2018-05-06T04:52:28.909Z,13.20
2018-05-06T04:54:58.113Z,13.20
2018-05-06T04:57:26.552Z,13.20
2018-05-06T04:59:55.013Z,13.20
2018-05-06T05:02:23.455Z,13.20
2018-05-06T05:04:51.957Z,13.20
2018-05-06T05:07:20.406Z,13.20
2018-05-06T05:09:49.631Z,13.10
2018-05-06T05:12:18.109Z,13.10
2018-05-06T05:14:47.614Z,13.00
2018-05-06T05:17:16.129Z,13.20
2018-05-06T05:19:44.582Z,13.10
2018-05-06T05:22:13.095Z,13.10
2018-05-06T05:24:41.715Z,13.10
2018-05-06T05:27:10.749Z,13.10
2018-05-06T05:29:39.219Z,13.20
2018-05-06T05:32:07.652Z,13.10
2018-05-06T05:34:36.917Z,13.20
2018-05-06T05:37:05.354Z,13.10
2018-05-06T05:39:33.824Z,13.10
2018-05-06T05:42:02.260Z,13.40
2018-05-06T05:44:31.722Z,13.50
2018-05-06T05:47:01.004Z,13.30
2018-05-06T05:49:29.433Z,13.30
2018-05-06T05:51:57.865Z,13.40
2018-05-06T05:54:27.325Z,13.60
2018-05-06T05:56:55.776Z,13.60
2018-05-06T05:59:24.214Z,13.60
2018-05-06T06:01:52.710Z,13.50
2018-05-06T06:04:21.157Z,13.60
2018-05-06T06:06:50.362Z,13.80
2018-05-06T06:09:19.398Z,13.80
2018-05-06T06:11:47.828Z,13.70
2018-05-06T06:14:17.069Z,13.80
2018-05-06T06:16:45.548Z,13.80
2018-05-06T06:19:14.038Z,13.80
2018-05-06T06:21:42.513Z,13.80
2018-05-06T06:24:11.937Z,13.80
2018-05-06T06:26:41.220Z,13.80
2018-05-06T06:29:09.664Z,13.80
2018-05-06T06:31:38.105Z,14.00
2018-05-06T06:34:09.439Z,13.80
2018-05-06T06:36:37.900Z,13.90
2018-05-06T06:39:06.782Z,14.10
2018-05-06T06:41:35.282Z,14.10
2018-05-06T06:44:03.731Z,14.00
2018-05-06T06:46:32.166Z,14.00
2018-05-06T06:49:01.363Z,14.00
2018-05-06T06:51:30.226Z,14.00
2018-05-06T06:53:58.705Z,14.00
2018-05-06T06:56:26.908Z,14.20
2018-05-06T06:58:56.095Z,14.40
2018-05-06T07:01:25.303Z,14.30
2018-05-06T07:03:54.498Z,14.30
2018-05-06T07:06:23.703Z,14.30
2018-05-06T07:08:52.891Z,14.30
2018-05-06T07:11:21.866Z,14.60
2018-05-06T07:13:50.461Z,14.60
2018-05-06T07:16:19.651Z,15.00
2018-05-06T07:18:48.089Z,15.00
2018-05-06T07:21:16.534Z,15.10
2018-05-06T07:23:44.989Z,15.10
2018-05-06T07:26:14.190Z,15.30
2018-05-06T07:28:43.396Z,15.40
2018-05-06T07:31:12.597Z,15.40
2018-05-06T07:33:41.801Z,15.50
2018-05-06T07:36:10.600Z,15.50
2018-05-06T07:38:39.359Z,15.50
2018-05-06T07:41:08.688Z,15.70
2018-05-06T07:43:37.102Z,15.70
2018-05-06T07:46:05.539Z,15.80
2018-05-06T07:48:33.964Z,15.90
2018-05-06T07:51:02.395Z,15.90
2018-05-06T07:53:30.821Z,16.00
2018-05-06T07:55:59.273Z,15.90
2018-05-06T07:58:27.702Z,16.00
2018-05-06T08:00:56.658Z,16.10
2018-05-06T08:03:25.096Z,16.10
2018-05-06T08:05:53.533Z,16.20
2018-05-06T08:08:21.970Z,16.40
2018-05-06T08:10:50.484Z,16.50
2018-05-06T08:13:19.043Z,16.40
2018-05-06T08:15:47.463Z,16.40
2018-05-06T08:18:16.660Z,16.60
2018-05-06T08:20:45.862Z,16.80
2018-05-06T08:23:15.053Z,17.00
2018-05-06T08:25:44.282Z,17.10
2018-05-06T08:28:12.699Z,17.10
2018-05-06T08:30:41.839Z,17.20
2018-05-06T08:33:10.857Z,17.40
2018-05-06T08:35:39.307Z,17.40
2018-05-06T08:38:07.730Z,17.50
2018-05-06T08:40:36.167Z,17.70
2018-05-06T08:43:04.605Z,17.60
2018-05-06T08:45:33.018Z,17.60
2018-05-06T08:48:02.215Z,17.70
2018-05-06T08:50:31.178Z,17.90
2018-05-06T08:52:59.620Z,17.90
2018-05-06T08:55:28.040Z,17.80
2018-05-06T08:57:56.472Z,18.10
2018-05-06T09:00:24.902Z,18.20
2018-05-06T09:02:53.344Z,18.40
2018-05-06T09:05:21.777Z,18.10
2018-05-06T09:07:50.969Z,18.40
2018-05-06T09:10:20.185Z,18.60
2018-05-06T09:12:48.677Z,18.60
2018-05-06T09:15:17.118Z,18.70
2018-05-06T09:17:49.018Z,18.20
2018-05-06T09:20:17.465Z,18.60
2018-05-06T09:22:46.678Z,18.90
2018-05-06T09:25:15.112Z,18.90
2018-05-06T09:27:43.584Z,19.00
2018-05-06T09:30:12.038Z,19.10
2018-05-06T09:32:41.222Z,19.00
2018-05-06T09:35:09.642Z,19.10
2018-05-06T09:37:38.083Z,18.80
2018-05-06T09:40:06.705Z,19.10
2018-05-06T09:42:35.165Z,19.30
2018-05-06T09:45:03.594Z,19.40
2018-05-06T09:47:32.541Z,19.40
2018-05-06T09:50:01.117Z,19.40
2018-05-06T09:52:29.546Z,19.40
2018-05-06T09:54:57.979Z,19.60
2018-05-06T09:57:26.395Z,19.50
2018-05-06T09:59:55.598Z,19.50
2018-05-06T10:02:24.786Z,19.60
2018-05-06T10:04:53.983Z,19.60
2018-05-06T10:07:24.770Z,19.70
2018-05-06T10:09:53.973Z,20.00
2018-05-06T10:12:22.413Z,20.00
2018-05-06T10:14:50.837Z,20.00
2018-05-06T10:17:19.319Z,19.90
2018-05-06T10:19:47.761Z,19.60
2018-05-06T10:22:16.385Z,19.40
2018-05-06T10:24:45.700Z,19.50
2018-05-06T10:27:14.148Z,19.50
2018-05-06T10:29:42.585Z,19.40
2018-05-06T10:32:11.015Z,19.40
2018-05-06T10:34:40.103Z,19.40
2018-05-06T10:37:08.654Z,19.50
2018-05-06T10:39:37.095Z,19.40
2018-05-06T10:42:06.272Z,19.70
2018-05-06T10:44:34.770Z,19.70
2018-05-06T10:47:03.379Z,19.60
2018-05-06T10:49:31.986Z,19.80
2018-05-06T10:52:00.419Z,20.00
2018-05-06T10:54:29.653Z,20.00
2018-05-06T10:56:58.086Z,20.00
2018-05-06T10:59:27.282Z,20.30
2018-05-06T11:01:56.495Z,20.40
2018-05-06T11:04:25.685Z,20.60
2018-05-06T11:06:54.890Z,20.60
2018-05-06T11:09:23.313Z,20.60
2018-05-06T11:11:51.765Z,20.30
2018-05-06T11:14:20.192Z,20.20
2018-05-06T11:16:48.620Z,20.30
2018-05-06T11:19:16.817Z,20.40
2018-05-06T11:21:45.276Z,20.50
2018-05-06T11:24:13.707Z,20.40
2018-05-06T11:26:42.253Z,20.50
2018-05-06T11:29:11.187Z,20.60
2018-05-06T11:31:40.745Z,20.60
2018-05-06T11:34:09.629Z,20.50
2018-05-06T11:36:38.057Z,20.50
2018-05-06T11:39:07.268Z,20.90
2018-05-06T11:41:36.477Z,20.80
2018-05-06T11:44:04.922Z,20.80
2018-05-06T11:46:33.355Z,20.90
2018-05-06T11:49:01.799Z,21.00
2018-05-06T11:51:30.993Z,20.60
2018-05-06T11:54:00.182Z,20.60
2018-05-06T11:56:29.396Z,20.50
2018-05-06T11:58:57.600Z,20.50
2018-05-06T12:01:25.856Z,20.50
2018-05-06T12:03:54.276Z,20.40
2018-05-06T12:06:22.749Z,20.50
2018-05-06T12:08:51.187Z,20.50
2018-05-06T12:11:19.624Z,20.40
2018-05-06T12:13:48.069Z,20.40
2018-05-06T12:16:16.491Z,20.50
2018-05-06T12:18:45.709Z,20.90
2018-05-06T12:21:14.179Z,20.90
2018-05-06T12:23:43.377Z,20.90
2018-05-06T12:26:12.600Z,20.80
2018-05-06T12:28:41.019Z,20.80
2018-05-06T12:31:09.459Z,20.70
2018-05-06T12:33:37.905Z,20.70
2018-05-06T12:36:06.203Z,20.70
2018-05-06T12:38:34.637Z,20.70
2018-05-06T12:41:03.067Z,20.70
2018-05-06T12:43:31.514Z,20.70
2018-05-06T12:46:00.133Z,20.70
2018-05-06T12:48:28.567Z,21.00
2018-05-06T12:50:57.004Z,21.20
2018-05-06T12:53:25.444Z,21.30
2018-05-06T12:55:54.652Z,20.90
2018-05-06T12:58:23.096Z,20.90
2018-05-06T13:00:51.545Z,21.00
2018-05-06T13:03:20.005Z,21.00
2018-05-06T13:05:48.494Z,21.10
2018-05-06T13:08:16.689Z,21.20
2018-05-06T13:10:45.132Z,21.30
2018-05-06T13:13:13.584Z,21.20
2018-05-06T13:15:42.013Z,21.30
2018-05-06T13:18:10.455Z,21.30
2018-05-06T13:20:39.266Z,21.30
2018-05-06T13:23:07.725Z,21.50
2018-05-06T13:25:36.196Z,21.30
2018-05-06T13:28:03.724Z,21.20
2018-05-06T13:30:32.182Z,21.30
2018-05-06T13:33:00.644Z,21.30
2018-05-06T13:35:29.064Z,21.40
2018-05-06T13:37:57.479Z,21.40
2018-05-06T13:40:25.680Z,21.50
2018-05-06T13:42:54.104Z,21.60
2018-05-06T13:45:23.302Z,21.60
2018-05-06T13:47:52.492Z,21.60
2018-05-06T13:50:21.696Z,21.60
2018-05-06T13:52:50.896Z,21.70
2018-05-06T13:55:20.120Z,21.60
2018-05-06T13:57:48.540Z,21.70
2018-05-06T14:00:17.018Z,21.70
2018-05-06T14:02:45.457Z,21.70
2018-05-06T14:05:13.871Z,21.80
2018-05-06T14:07:42.313Z,21.80
2018-05-06T14:10:11.648Z,21.80
2018-05-06T14:12:41.028Z,21.70
2018-05-06T14:15:09.708Z,21.80
2018-05-06T14:17:38.146Z,21.90
2018-05-06T14:20:07.336Z,22.10
2018-05-06T14:22:36.542Z,22.10
2018-05-06T14:25:05.737Z,22.10
2018-05-06T14:27:34.936Z,22.20
2018-05-06T14:30:03.892Z,22.30
2018-05-06T14:32:32.981Z,22.60
2018-05-06T14:35:01.422Z,22.50
2018-05-06T14:37:29.856Z,22.60
2018-05-06T14:40:00.125Z,22.60
2018-05-06T14:42:29.418Z,22.50
2018-05-06T14:44:57.932Z,22.50
2018-05-06T14:47:37.812Z,22.50
2018-05-06T14:50:06.326Z,22.50
2018-05-06T14:52:34.803Z,22.60
2018-05-06T14:55:03.320Z,22.70
2018-05-06T14:57:31.859Z,22.70
2018-05-06T15:00:00.365Z,22.60
2018-05-06T15:02:28.855Z,22.40
2018-05-06T15:04:57.370Z,22.60
2018-05-06T15:07:25.903Z,22.40
2018-05-06T15:09:55.205Z,22.40
2018-05-06T15:12:23.708Z,22.30
2018-05-06T15:14:52.273Z,22.40
2018-05-06T15:17:20.789Z,22.50
2018-05-06T15:22:26.448Z,22.40
2018-05-06T15:24:55.822Z,22.40
2018-05-06T15:27:24.272Z,22.40
2018-05-06T15:29:52.697Z,22.20
2018-05-06T15:32:21.145Z,22.10
2018-05-06T15:34:50.342Z,22.20
2018-05-06T15:37:19.559Z,22.10
2018-05-06T15:39:47.997Z,22.00
2018-05-06T15:42:16.886Z,22.00
2018-05-06T15:44:45.301Z,22.00
2018-05-06T15:47:13.733Z,21.80
2018-05-06T15:49:42.177Z,21.60
2018-05-06T15:52:10.647Z,21.40
2018-05-06T15:54:40.075Z,21.30
2018-05-06T15:57:08.517Z,21.30
2018-05-06T15:59:37.335Z,21.20
2018-05-06T16:05:16.291Z,21.00
2018-05-06T16:07:44.735Z,20.90
2018-05-06T16:10:13.160Z,20.70
2018-05-06T16:12:41.591Z,20.60
2018-05-06T16:15:09.810Z,20.60
2018-05-06T16:17:38.145Z,20.50
2018-05-06T16:20:07.270Z,20.50
2018-05-06T16:22:36.241Z,20.60
2018-05-06T16:25:05.156Z,20.70
2018-05-06T16:27:33.581Z,20.70
2018-05-06T16:30:02.027Z,20.60
2018-05-06T16:32:30.486Z,20.50
2018-05-06T16:34:58.930Z,20.70
2018-05-06T16:37:27.343Z,20.50
2018-05-06T16:39:55.785Z,20.50
2018-05-06T16:42:24.209Z,20.50
2018-05-06T16:44:52.649Z,20.30
2018-05-06T16:47:21.071Z,20.20
2018-05-06T16:49:49.525Z,20.10
2018-05-06T16:52:18.710Z,20.10
2018-05-06T16:54:47.151Z,20.10
2018-05-06T16:57:16.367Z,20.00
2018-05-06T16:59:44.805Z,19.90
2018-05-06T17:02:13.021Z,19.90
2018-05-06T17:04:41.456Z,19.90
2018-05-06T17:07:09.895Z,20.10
2018-05-06T17:09:38.348Z,20.00
2018-05-06T17:12:06.917Z,19.70
2018-05-06T17:14:36.252Z,19.60
2018-05-06T17:17:04.352Z,19.60
2018-05-06T17:19:34.105Z,19.40
2018-05-06T17:22:02.557Z,19.40
2018-05-06T17:24:31.193Z,19.40
2018-05-06T17:26:59.614Z,19.60
2018-05-06T17:29:28.059Z,19.50
2018-05-06T17:31:56.268Z,19.40
2018-05-06T17:34:24.769Z,19.30
2018-05-06T17:36:53.967Z,19.10
2018-05-06T17:39:23.198Z,19.00
2018-05-06T17:41:51.622Z,18.90
2018-05-06T17:44:20.070Z,18.90
2018-05-06T17:46:48.502Z,18.80
2018-05-06T17:49:17.020Z,18.70
2018-05-06T17:51:45.473Z,18.70
2018-05-06T17:54:13.919Z,18.70
2018-05-06T17:56:42.340Z,18.60
2018-05-06T17:59:10.480Z,18.60
2018-05-06T18:01:39.768Z,18.50
2018-05-06T18:04:09.074Z,18.50
2018-05-06T18:06:38.264Z,18.50
2018-05-06T18:09:06.838Z,18.50
2018-05-06T18:11:35.290Z,18.60
2018-05-06T18:14:03.393Z,18.50
2018-05-06T18:16:32.592Z,18.50
2018-05-06T18:19:01.049Z,18.50
2018-05-06T18:21:29.463Z,18.50
2018-05-06T18:23:58.655Z,18.30
2018-05-06T18:26:27.861Z,18.20
2018-05-06T18:28:57.053Z,18.10
2018-05-06T18:31:26.253Z,18.00
2018-05-06T18:33:55.458Z,18.00
2018-05-06T18:36:23.884Z,18.00
2018-05-06T18:38:52.332Z,18.00
2018-05-06T18:41:20.758Z,17.90
2018-05-06T18:43:49.268Z,17.90
2018-05-06T18:46:17.709Z,17.80
2018-05-06T18:48:46.142Z,17.80
2018-05-06T18:51:14.577Z,17.80
2018-05-06T18:53:43.020Z,17.70
2018-05-06T18:56:11.452Z,17.80
2018-05-06T18:58:40.636Z,17.70
2018-05-06T19:01:09.834Z,17.70
2018-05-06T19:03:39.037Z,17.70
2018-05-06T19:06:08.256Z,17.60
2018-05-06T19:08:36.686Z,17.60
2018-05-06T19:11:05.205Z,17.70
2018-05-06T19:13:34.418Z,17.70
2018-05-06T19:16:03.044Z,17.70
2018-05-06T19:18:31.489Z,17.60
2018-05-06T19:20:59.907Z,17.50
2018-05-06T19:23:28.349Z,17.50
2018-05-06T19:25:56.787Z,17.50
2018-05-06T19:28:25.982Z,17.50
2018-05-06T19:30:55.176Z,17.50
2018-05-06T19:33:24.390Z,17.40
2018-05-06T19:35:52.816Z,17.40
2018-05-06T19:38:21.235Z,17.20
2018-05-06T19:40:50.443Z,17.30
2018-05-06T19:43:18.915Z,17.20
2018-05-06T19:45:48.095Z,17.10
2018-05-06T19:48:16.556Z,17.10
2018-05-06T19:50:44.989Z,17.10
2018-05-06T19:53:13.472Z,17.00
2018-05-06T19:55:41.902Z,17.00
2018-05-06T19:58:10.363Z,16.80
2018-05-06T20:00:38.814Z,16.80
2018-05-06T20:03:07.982Z,16.70
2018-05-06T20:05:39.192Z,16.80
2018-05-06T20:08:07.640Z,16.80
2018-05-06T20:10:36.112Z,16.90
2018-05-06T20:13:04.568Z,16.80
2018-05-06T20:15:33.170Z,16.80
2018-05-06T20:18:01.610Z,16.90
2018-05-06T20:20:31.295Z,16.80
2018-05-06T20:22:59.710Z,16.80
2018-05-06T20:25:28.889Z,16.90
2018-05-06T20:27:58.097Z,17.00
2018-05-06T20:30:27.304Z,17.10
2018-05-06T20:32:55.727Z,17.10
2018-05-06T20:35:24.148Z,17.00
2018-05-06T20:37:53.360Z,16.80
2018-05-06T20:40:22.658Z,16.80
2018-05-06T20:42:50.877Z,16.70
2018-05-06T20:45:19.371Z,16.70
2018-05-06T20:47:48.634Z,16.80
2018-05-06T20:50:17.099Z,16.80
2018-05-06T20:52:46.365Z,16.80
2018-05-06T20:55:15.698Z,16.70
2018-05-06T20:57:44.268Z,16.70
2018-05-06T21:00:14.352Z,16.60
2018-05-06T21:02:42.804Z,16.60
2018-05-06T21:05:11.272Z,16.70
2018-05-06T21:07:39.717Z,16.70
2018-05-06T21:10:09.956Z,16.60
2018-05-06T21:12:38.432Z,16.50
2018-05-06T21:15:07.698Z,16.40
2018-05-06T21:17:36.157Z,16.40
2018-05-06T21:20:04.455Z,16.50
2018-05-06T21:22:32.973Z,16.40
2018-05-06T21:25:04.072Z,16.30
2018-05-06T21:27:32.613Z,16.30
2018-05-06T21:30:01.192Z,16.30
2018-05-06T21:32:30.448Z,16.20
2018-05-06T21:34:58.899Z,16.20
2018-05-06T21:37:27.347Z,16.20
2018-05-06T21:39:56.640Z,16.10
2018-05-06T21:42:24.421Z,16.10
2018-05-06T21:44:52.952Z,16.20
2018-05-06T21:47:21.576Z,16.10
2018-05-06T21:49:50.119Z,16.10
2018-05-06T21:52:18.727Z,16.00
2018-05-06T21:54:47.215Z,16.00
2018-05-06T21:57:15.708Z,15.90
2018-05-06T21:59:45.004Z,15.90
2018-05-06T22:02:13.495Z,15.90
2018-05-06T22:04:41.959Z,15.80
2018-05-06T22:07:10.418Z,15.80
2018-05-06T22:09:38.901Z,15.80
2018-05-06T22:12:07.382Z,15.80
2018-05-06T22:14:35.858Z,15.80
2018-05-06T22:17:03.977Z,15.70
2018-05-06T22:19:33.219Z,15.70
2018-05-06T22:22:01.703Z,15.70
2018-05-06T22:24:30.976Z,15.70
2018-05-06T22:26:59.447Z,15.70
2018-05-06T22:29:28.733Z,15.60
2018-05-06T22:31:57.282Z,15.60
2018-05-06T22:34:27.490Z,15.50
2018-05-06T22:36:55.932Z,15.40
2018-05-06T22:39:24.448Z,15.40
2018-05-06T22:41:52.928Z,15.50
2018-05-06T22:44:22.156Z,15.40
2018-05-06T22:46:51.397Z,15.40
2018-05-06T22:49:20.650Z,15.40
2018-05-06T22:51:49.207Z,15.40
2018-05-06T22:54:18.349Z,15.30
2018-05-06T22:56:47.653Z,15.30
2018-05-06T22:59:16.138Z,15.30
2018-05-06T23:01:44.582Z,15.30
2018-05-06T23:04:13.835Z,15.20
2018-05-06T23:06:42.350Z,15.20
2018-05-06T23:09:10.855Z,15.10
2018-05-06T23:11:39.343Z,15.10
2018-05-06T23:14:07.821Z,15.00
2018-05-06T23:16:36.269Z,15.00
2018-05-06T23:19:04.850Z,15.00
2018-05-06T23:21:34.232Z,15.00
2018-05-06T23:24:03.663Z,15.00
2018-05-06T23:26:32.164Z,15.00
2018-05-06T23:29:00.815Z,15.00
2018-05-06T23:31:29.861Z,14.90
2018-05-06T23:33:58.341Z,14.80
2018-05-06T23:36:27.606Z,14.80
2018-05-06T23:38:56.112Z,14.80
2018-05-06T23:41:24.744Z,14.80
2018-05-06T23:43:53.230Z,14.70
2018-05-06T23:46:21.723Z,14.70
2018-05-06T23:48:50.533Z,14.70
2018-05-06T23:51:19.785Z,14.70
2018-05-06T23:53:48.257Z,14.70
2018-05-06T23:56:17.622Z,14.60
2018-05-06T23:58:46.197Z,14.60
